createdAt,value
2023-04-30T00:02:21.365Z,77.72
2023-04-30T00:05:06.894Z,77.74
2023-04-30T00:07:34.943Z,77.72
2023-04-30T00:10:02.027Z,78.13
2023-04-30T00:12:29.363Z,78.01
2023-04-30T00:14:56.553Z,77.99
2023-04-30T00:17:23.889Z,78.10
2023-04-30T00:19:50.922Z,78.44
2023-04-30T00:22:17.924Z,78.80
2023-04-30T00:24:44.645Z,79.00
2023-04-30T00:27:11.449Z,78.73
2023-04-30T00:29:38.637Z,78.61
2023-04-30T00:32:06.433Z,78.76
2023-04-30T00:34:33.168Z,78.76
2023-04-30T00:37:00.085Z,78.93
2023-04-30T00:39:26.866Z,79.05
2023-04-30T00:41:53.788Z,79.11
2023-04-30T00:44:20.781Z,79.18
2023-04-30T00:46:47.584Z,79.37
2023-04-30T00:49:15.271Z,79.68
2023-04-30T00:51:42.431Z,79.60
2023-04-30T00:54:09.531Z,79.63
2023-04-30T00:56:36.580Z,79.52
2023-04-30T00:59:03.495Z,79.81
2023-04-30T01:01:30.704Z,79.87
2023-04-30T01:03:57.710Z,80.42
2023-04-30T01:06:25.872Z,80.52
2023-04-30T01:08:53.146Z,80.54
2023-04-30T01:11:28.577Z,80.45
2023-04-30T01:14:08.770Z,80.59
2023-04-30T01:16:40.218Z,80.76
2023-04-30T01:19:20.620Z,80.95
2023-04-30T01:21:48.524Z,81.14
2023-04-30T01:24:21.347Z,81.03
2023-04-30T01:27:09.606Z,81.03
2023-04-30T01:29:36.594Z,81.14
2023-04-30T01:32:03.735Z,81.03
2023-04-30T01:34:31.165Z,80.97
2023-04-30T01:37:22.349Z,80.91
2023-04-30T01:39:58.370Z,80.94
2023-04-30T01:42:42.079Z,80.90
2023-04-30T01:45:27.738Z,80.90
2023-04-30T01:48:03.670Z,80.64
2023-04-30T01:50:47.325Z,80.36
2023-04-30T01:53:18.198Z,79.98
2023-04-30T01:55:50.037Z,79.88
2023-04-30T01:58:17.002Z,79.62
2023-04-30T02:00:43.716Z,79.42
2023-04-30T02:03:10.731Z,79.35
2023-04-30T02:05:37.711Z,78.97
2023-04-30T02:08:04.702Z,78.95
2023-04-30T02:10:31.527Z,78.77
2023-04-30T02:12:59.573Z,78.57
2023-04-30T02:15:27.482Z,78.68
2023-04-30T02:17:54.598Z,78.68
2023-04-30T02:20:21.674Z,78.97
2023-04-30T02:22:48.537Z,79.19
2023-04-30T02:25:15.484Z,79.34
2023-04-30T02:27:42.192Z,79.46
2023-04-30T02:30:09.802Z,79.38
2023-04-30T02:32:36.646Z,79.20
2023-04-30T02:35:03.724Z,79.08
2023-04-30T02:37:30.557Z,78.82
2023-04-30T02:39:57.906Z,78.64
2023-04-30T02:42:25.631Z,78.38
2023-04-30T02:44:52.369Z,78.12
2023-04-30T02:47:19.082Z,77.74
2023-04-30T02:49:45.943Z,77.72
2023-04-30T02:52:12.647Z,77.46
2023-04-30T02:54:39.725Z,77.42
2023-04-30T02:57:07.373Z,77.03
2023-04-30T02:59:34.375Z,77.10
2023-04-30T03:02:01.273Z,76.97
2023-04-30T03:04:28.234Z,77.06
2023-04-30T03:06:54.995Z,77.11
2023-04-30T03:09:21.790Z,76.91
2023-04-30T03:11:48.716Z,76.79
2023-04-30T03:14:15.685Z,76.70
2023-04-30T03:16:42.492Z,76.58
2023-04-30T03:19:09.474Z,76.44
2023-04-30T03:21:36.138Z,76.30
2023-04-30T03:24:02.979Z,76.43
2023-04-30T03:26:29.861Z,76.30
2023-04-30T03:28:56.794Z,76.31
2023-04-30T03:31:23.719Z,76.40
2023-04-30T03:33:51.080Z,76.40
2023-04-30T03:36:17.928Z,76.29
2023-04-30T03:38:44.758Z,76.14
2023-04-30T03:41:11.694Z,75.96
2023-04-30T03:43:38.546Z,75.76
2023-04-30T03:46:05.518Z,75.93
2023-04-30T03:48:32.407Z,75.48
2023-04-30T03:50:59.154Z,75.01
2023-04-30T03:53:26.776Z,74.69
2023-04-30T03:55:54.713Z,74.59
2023-04-30T03:58:22.223Z,74.33
2023-04-30T04:00:49.123Z,74.06
2023-04-30T04:03:16.136Z,74.07
2023-04-30T04:05:43.311Z,73.77
2023-04-30T04:08:10.348Z,73.72
2023-04-30T04:10:38.550Z,73.64
2023-04-30T04:13:05.404Z,74.30
2023-04-30T04:15:33.522Z,74.02
2023-04-30T04:18:01.013Z,73.74
2023-04-30T04:20:30.103Z,73.31
2023-04-30T04:22:57.341Z,73.32
2023-04-30T04:25:25.271Z,72.89
2023-04-30T04:27:52.618Z,72.28
2023-04-30T04:30:19.842Z,71.67
2023-04-30T04:32:50.782Z,71.23
2023-04-30T04:35:19.346Z,70.61
2023-04-30T04:37:46.392Z,70.14
2023-04-30T04:40:15.504Z,69.37
2023-04-30T04:42:42.274Z,68.88
2023-04-30T04:45:10.023Z,68.44
2023-04-30T04:47:38.133Z,67.94
2023-04-30T04:50:05.053Z,67.40
2023-04-30T04:52:31.956Z,67.11
2023-04-30T04:54:58.688Z,66.96
2023-04-30T04:57:25.882Z,66.75
2023-04-30T04:59:53.554Z,66.91
2023-04-30T05:02:21.371Z,66.92
2023-04-30T05:04:50.524Z,66.64
2023-04-30T05:07:18.944Z,66.60
2023-04-30T05:09:49.286Z,65.55
2023-04-30T05:12:16.222Z,65.32
2023-04-30T05:14:44.016Z,65.38
2023-04-30T05:17:11.100Z,65.42
2023-04-30T05:19:37.702Z,64.89
2023-04-30T05:22:05.455Z,64.58
2023-04-30T05:24:32.197Z,64.08
2023-04-30T05:26:59.065Z,64.07
2023-04-30T05:29:25.801Z,63.68
2023-04-30T05:31:52.852Z,63.36
2023-04-30T05:34:19.661Z,63.05
2023-04-30T05:36:46.672Z,62.33
2023-04-30T05:39:13.409Z,63.54
2023-04-30T05:41:40.175Z,63.87
2023-04-30T05:44:07.229Z,63.95
2023-04-30T05:46:35.621Z,63.21
2023-04-30T05:49:02.401Z,63.19
2023-04-30T05:51:29.386Z,63.31
2023-04-30T05:53:57.592Z,62.82
2023-04-30T05:56:25.183Z,62.61
2023-04-30T05:58:52.688Z,62.22
2023-04-30T06:01:20.680Z,61.48
2023-04-30T06:03:47.559Z,61.45
2023-04-30T06:06:14.334Z,60.02
2023-04-30T06:08:44.576Z,60.10
2023-04-30T06:11:12.019Z,59.00
2023-04-30T06:13:39.333Z,59.10
2023-04-30T06:16:08.768Z,58.59
2023-04-30T06:18:36.092Z,57.54
2023-04-30T06:21:03.006Z,57.20
2023-04-30T06:23:29.852Z,56.77
2023-04-30T06:25:56.627Z,56.70
2023-04-30T06:28:23.289Z,57.11
2023-04-30T06:30:50.308Z,57.56
2023-04-30T06:33:17.476Z,56.98
2023-04-30T06:35:44.174Z,56.97
2023-04-30T06:38:11.412Z,57.93
2023-04-30T06:40:38.496Z,59.59
2023-04-30T06:43:05.459Z,61.04
2023-04-30T06:45:32.179Z,60.98
2023-04-30T06:47:59.653Z,60.40
2023-04-30T06:50:26.493Z,59.20
2023-04-30T06:52:53.282Z,58.63
2023-04-30T06:55:20.153Z,57.31
2023-04-30T06:57:47.558Z,56.30
2023-04-30T07:00:16.939Z,54.41
2023-04-30T07:02:43.893Z,52.83
2023-04-30T07:05:11.389Z,52.21
2023-04-30T07:07:38.378Z,51.42
2023-04-30T07:10:05.453Z,50.06
2023-04-30T07:12:32.204Z,50.38
2023-04-30T07:14:58.902Z,50.33
2023-04-30T07:17:27.510Z,50.16
2023-04-30T07:19:56.195Z,49.83
2023-04-30T07:22:23.209Z,50.19
2023-04-30T07:24:49.892Z,50.39
2023-04-30T07:27:16.720Z,50.49
2023-04-30T07:29:43.435Z,49.95
2023-04-30T07:32:10.965Z,49.43
2023-04-30T07:34:38.414Z,49.70
2023-04-30T07:37:05.487Z,49.98
2023-04-30T07:39:32.226Z,49.07
2023-04-30T07:41:59.060Z,47.95
2023-04-30T07:44:25.854Z,49.05
2023-04-30T07:46:52.659Z,48.54
2023-04-30T07:49:19.381Z,48.11
2023-04-30T07:51:46.878Z,48.19
2023-04-30T07:54:13.707Z,49.23
2023-04-30T07:56:40.603Z,48.60
2023-04-30T07:59:07.349Z,47.55
2023-04-30T08:01:34.286Z,46.98
2023-04-30T08:04:01.575Z,46.34
2023-04-30T08:06:28.992Z,45.58
2023-04-30T08:08:55.999Z,44.89
2023-04-30T08:11:22.990Z,44.56
2023-04-30T08:13:49.664Z,43.74
2023-04-30T08:16:17.247Z,45.02
2023-04-30T08:18:45.084Z,44.19
2023-04-30T08:21:13.717Z,45.08
2023-04-30T08:23:40.552Z,46.21
2023-04-30T08:26:07.585Z,47.11
2023-04-30T08:28:34.332Z,47.42
2023-04-30T08:31:01.230Z,47.21
2023-04-30T08:33:27.973Z,46.74
2023-04-30T08:35:54.938Z,46.92
2023-04-30T08:38:21.627Z,45.74
2023-04-30T08:41:00.652Z,45.85
2023-04-30T08:43:27.976Z,45.33
2023-04-30T08:45:54.990Z,45.53
2023-04-30T08:48:23.813Z,44.36
2023-04-30T08:50:50.531Z,44.27
2023-04-30T08:53:17.762Z,43.67
2023-04-30T08:55:45.104Z,44.96
2023-04-30T08:58:11.918Z,45.84
2023-04-30T09:00:39.509Z,45.24
2023-04-30T09:03:07.566Z,44.78
2023-04-30T09:05:34.571Z,44.75
2023-04-30T09:08:04.084Z,45.59
2023-04-30T09:10:35.403Z,45.14
2023-04-30T09:13:05.546Z,45.18
2023-04-30T09:15:33.270Z,44.94
2023-04-30T09:18:18.831Z,43.60
2023-04-30T09:20:55.082Z,42.24
2023-04-30T09:23:23.250Z,42.08
2023-04-30T09:25:49.997Z,41.75
2023-04-30T09:28:16.850Z,40.89
2023-04-30T09:30:43.501Z,40.82
2023-04-30T09:33:12.178Z,39.70
2023-04-30T09:35:41.744Z,38.36
2023-04-30T09:38:25.187Z,38.04
2023-04-30T09:40:52.017Z,36.55
2023-04-30T09:43:18.930Z,36.28
2023-04-30T09:45:52.938Z,37.27
2023-04-30T09:48:23.183Z,36.04
2023-04-30T09:50:50.369Z,37.04
2023-04-30T09:53:20.750Z,37.49
2023-04-30T09:55:49.886Z,38.50
2023-04-30T09:58:17.645Z,37.67
2023-04-30T10:00:45.596Z,37.79
2023-04-30T10:03:13.617Z,38.14
2023-04-30T10:05:48.769Z,37.70
2023-04-30T10:08:27.262Z,37.48
2023-04-30T10:11:00.844Z,37.08
2023-04-30T10:13:32.169Z,36.62
2023-04-30T10:16:04.565Z,35.80
2023-04-30T10:18:34.368Z,35.17
2023-04-30T10:21:03.594Z,36.81
2023-04-30T10:23:30.691Z,37.18
2023-04-30T10:25:58.319Z,39.10
2023-04-30T10:28:25.324Z,40.98
2023-04-30T10:30:52.583Z,43.68
2023-04-30T10:33:51.437Z,51.91
2023-04-30T10:36:24.602Z,56.13
2023-04-30T10:38:51.872Z,57.76
2023-04-30T10:41:20.232Z,59.54
2023-04-30T10:43:47.303Z,60.70
2023-04-30T10:46:22.147Z,60.73
2023-04-30T10:48:49.074Z,59.97
2023-04-30T10:51:16.073Z,59.42
2023-04-30T10:53:44.119Z,58.74
2023-04-30T10:56:11.122Z,56.62
2023-04-30T10:58:39.002Z,53.00
2023-04-30T11:01:12.024Z,52.46
2023-04-30T11:03:42.345Z,50.95
2023-04-30T11:06:13.514Z,49.70
2023-04-30T11:08:43.414Z,47.54
2023-04-30T11:11:11.151Z,45.66
2023-04-30T11:13:47.773Z,43.75
2023-04-30T11:16:17.806Z,41.41
2023-04-30T11:18:45.468Z,40.66
2023-04-30T11:21:12.725Z,40.07
2023-04-30T11:23:43.514Z,40.56
2023-04-30T11:26:11.970Z,39.77
2023-04-30T11:28:38.843Z,39.18
2023-04-30T11:31:05.939Z,39.92
2023-04-30T11:33:33.618Z,41.61
2023-04-30T11:36:01.934Z,42.03
2023-04-30T11:38:29.871Z,41.79
2023-04-30T11:40:57.670Z,41.87
2023-04-30T11:43:31.176Z,42.42
2023-04-30T11:46:17.723Z,44.08
2023-04-30T11:48:45.650Z,44.74
2023-04-30T11:53:31.110Z,44.39
2023-04-30T11:56:02.229Z,45.18
2023-04-30T11:58:33.253Z,45.20
2023-04-30T12:01:00.841Z,45.21
2023-04-30T12:03:27.652Z,44.61
2023-04-30T12:05:54.713Z,43.40
2023-04-30T12:08:21.486Z,43.58
2023-04-30T12:10:48.320Z,45.05
2023-04-30T12:13:16.217Z,45.37
2023-04-30T12:15:43.142Z,46.59
2023-04-30T12:18:13.843Z,47.59
2023-04-30T12:20:42.090Z,48.46
2023-04-30T12:23:08.734Z,49.38
2023-04-30T12:25:45.733Z,51.31
2023-04-30T12:28:12.451Z,53.43
2023-04-30T12:30:39.360Z,56.04
2023-04-30T12:33:06.358Z,57.15
2023-04-30T12:35:33.383Z,58.06
2023-04-30T12:38:04.832Z,59.01
2023-04-30T12:40:31.849Z,58.33
2023-04-30T12:43:04.218Z,56.94
2023-04-30T12:45:53.721Z,54.87
2023-04-30T12:48:23.022Z,53.90
2023-04-30T12:50:54.152Z,54.32
2023-04-30T12:53:22.046Z,55.28
2023-04-30T12:56:24.624Z,54.42
2023-04-30T12:58:52.111Z,53.94
2023-04-30T13:01:21.386Z,53.31
2023-04-30T13:03:48.746Z,53.04
2023-04-30T13:06:16.220Z,52.80
2023-04-30T13:08:57.124Z,53.12
2023-04-30T13:11:27.142Z,53.17
2023-04-30T13:13:57.504Z,53.29
2023-04-30T13:16:25.401Z,52.52
2023-04-30T13:18:53.115Z,51.81
2023-04-30T13:21:21.368Z,52.53
2023-04-30T13:23:52.916Z,52.16
2023-04-30T13:26:22.450Z,52.15
2023-04-30T16:11:57.523Z,32.13
2023-04-30T16:14:24.807Z,32.75
2023-04-30T16:16:52.271Z,33.97
2023-04-30T16:19:21.568Z,35.86
2023-04-30T16:21:48.479Z,35.62
2023-04-30T16:24:16.373Z,33.65
2023-04-30T16:26:43.388Z,33.89
2023-04-30T16:29:10.359Z,33.65
2023-04-30T16:31:37.324Z,32.80
2023-04-30T16:34:04.464Z,32.72
2023-04-30T16:36:32.799Z,31.53
2023-04-30T16:38:59.862Z,30.75
2023-04-30T16:41:26.940Z,30.62
2023-04-30T16:43:53.957Z,30.06
2023-04-30T16:46:20.894Z,30.32
2023-04-30T16:48:48.432Z,30.80
2023-04-30T16:51:15.286Z,32.73
2023-04-30T16:53:42.655Z,34.48
2023-04-30T16:56:09.479Z,36.75
2023-04-30T16:58:38.000Z,38.09
2023-04-30T17:01:05.075Z,40.60
2023-04-30T17:03:34.865Z,42.14
2023-04-30T17:06:02.191Z,45.16
2023-04-30T17:08:29.229Z,48.02
2023-04-30T17:10:56.306Z,49.81
2023-04-30T17:13:23.372Z,50.73
2023-04-30T17:15:50.646Z,51.30
2023-04-30T17:18:17.721Z,53.53
2023-04-30T17:20:46.524Z,54.84
2023-04-30T17:23:13.478Z,55.31
2023-04-30T17:25:40.508Z,56.24
2023-04-30T17:28:07.434Z,57.13
2023-04-30T17:30:35.285Z,58.51
2023-04-30T17:33:02.895Z,59.30
2023-04-30T17:35:29.957Z,60.56
2023-04-30T17:37:56.783Z,61.56
2023-04-30T17:40:23.870Z,61.92
2023-04-30T17:42:51.971Z,63.01
2023-04-30T17:45:19.163Z,63.53
2023-04-30T17:47:46.204Z,64.22
2023-04-30T17:50:13.230Z,65.52
2023-04-30T17:52:40.250Z,66.05
2023-04-30T17:55:08.746Z,66.41
2023-04-30T17:57:36.296Z,66.30
2023-04-30T18:00:04.900Z,66.83
2023-04-30T18:02:41.937Z,67.77
2023-04-30T18:05:10.059Z,68.40
2023-04-30T18:07:37.405Z,69.23
2023-04-30T18:10:04.636Z,69.18
2023-04-30T18:12:31.728Z,69.27
2023-04-30T18:14:59.347Z,69.08
2023-04-30T18:17:45.849Z,70.32
2023-04-30T18:20:12.959Z,70.49
2023-04-30T18:22:43.424Z,70.79
2023-04-30T18:25:11.948Z,71.78
2023-04-30T18:27:43.593Z,71.66
2023-04-30T18:30:11.902Z,70.83
2023-04-30T18:32:38.908Z,71.29
2023-04-30T18:35:06.544Z,71.56
2023-04-30T18:37:33.950Z,71.78
2023-04-30T18:40:01.088Z,72.49
2023-04-30T18:42:29.092Z,72.81
2023-04-30T18:44:57.266Z,73.04
2023-04-30T18:47:24.893Z,73.20
2023-04-30T18:49:51.990Z,73.18
2023-04-30T18:52:18.984Z,73.37
2023-04-30T18:54:46.570Z,73.06
2023-04-30T18:57:16.321Z,73.05
2023-04-30T18:59:43.449Z,72.78
2023-04-30T19:02:11.344Z,71.99
2023-04-30T19:04:38.541Z,72.08
2023-04-30T19:07:05.472Z,71.63
2023-04-30T19:09:36.815Z,70.79
2023-04-30T19:12:04.164Z,70.48
2023-04-30T19:14:31.231Z,70.59
2023-04-30T19:17:00.245Z,70.62
2023-04-30T19:19:27.879Z,69.40
2023-04-30T19:21:54.882Z,68.53
2023-04-30T19:24:22.681Z,68.51
2023-04-30T19:26:51.674Z,67.54
2023-04-30T19:29:19.071Z,67.30
2023-04-30T19:31:46.378Z,66.79
2023-04-30T19:34:13.988Z,65.73
2023-04-30T19:36:44.186Z,65.37
2023-04-30T19:39:11.919Z,65.23
2023-04-30T19:41:39.276Z,63.91
2023-04-30T19:44:07.763Z,63.40
2023-04-30T19:46:35.047Z,63.59
2023-04-30T19:49:02.271Z,62.95
2023-04-30T19:51:29.143Z,63.30
2023-04-30T19:53:59.413Z,62.91
2023-04-30T19:56:26.794Z,63.92
2023-04-30T19:58:54.016Z,62.99
2023-04-30T20:01:20.917Z,62.75
2023-04-30T20:03:48.183Z,62.46
2023-04-30T20:06:15.524Z,63.25
2023-04-30T20:08:42.632Z,62.75
2023-04-30T20:11:09.631Z,62.67
2023-04-30T20:13:36.620Z,63.11
2023-04-30T20:16:04.174Z,63.51
2023-04-30T20:18:31.263Z,67.17
2023-04-30T20:20:58.630Z,65.89
2023-04-30T20:23:25.711Z,65.32
2023-04-30T20:25:55.001Z,64.62
2023-04-30T20:28:22.259Z,65.10
2023-04-30T20:30:49.468Z,64.27
2023-04-30T20:33:16.647Z,64.41
2023-04-30T20:35:47.317Z,65.09
2023-04-30T20:38:17.278Z,64.14
2023-04-30T20:40:46.148Z,64.66
2023-04-30T20:43:13.180Z,64.73
2023-04-30T20:45:42.579Z,64.79
2023-04-30T20:48:09.988Z,64.46
2023-04-30T20:50:37.700Z,64.41
2023-04-30T20:53:04.795Z,64.91
2023-04-30T20:55:31.936Z,65.15
2023-04-30T20:57:58.985Z,63.65
2023-04-30T21:00:26.141Z,63.21
2023-04-30T21:02:54.074Z,63.13
2023-04-30T21:05:21.377Z,63.57
2023-04-30T21:07:48.225Z,63.07
2023-04-30T21:10:15.322Z,62.53
2023-04-30T21:12:42.529Z,62.12
2023-04-30T21:15:11.148Z,62.83
2023-04-30T21:17:38.210Z,62.22
2023-04-30T21:20:05.998Z,61.93
2023-04-30T21:22:34.348Z,62.58
2023-04-30T21:25:01.334Z,61.56
2023-04-30T21:27:28.298Z,61.95
2023-04-30T21:29:55.487Z,62.44
2023-04-30T21:32:24.668Z,62.51
2023-04-30T21:34:55.006Z,61.99
2023-04-30T21:37:24.244Z,62.27
2023-04-30T21:39:51.190Z,62.44
2023-04-30T21:42:18.237Z,62.02
2023-04-30T21:44:45.292Z,62.40
2023-04-30T21:47:12.375Z,62.72
2023-04-30T21:49:39.238Z,63.11
2023-04-30T21:52:08.327Z,63.81
2023-04-30T21:54:35.340Z,63.70
2023-04-30T21:57:02.845Z,62.47
2023-04-30T21:59:29.772Z,63.12
2023-04-30T22:02:03.056Z,63.08
2023-04-30T22:04:32.239Z,63.08
2023-04-30T22:07:00.336Z,63.02
2023-04-30T22:09:27.274Z,63.33
2023-04-30T22:11:54.310Z,63.20
2023-04-30T22:14:21.252Z,63.61
2023-04-30T22:16:48.304Z,64.17
2023-04-30T22:19:15.239Z,63.91
2023-04-30T22:21:42.351Z,64.10
2023-04-30T22:24:09.489Z,64.91
2023-04-30T22:26:36.477Z,64.77
2023-04-30T22:29:03.342Z,65.34
2023-04-30T22:31:30.624Z,66.20
2023-04-30T22:33:57.558Z,65.77
2023-04-30T22:36:24.517Z,65.84
2023-04-30T22:38:51.510Z,66.73
2023-04-30T22:41:18.753Z,66.53
2023-04-30T22:43:47.382Z,66.88
2023-04-30T22:46:15.624Z,67.25
2023-04-30T22:48:44.410Z,67.51
2023-04-30T22:51:11.516Z,67.41
2023-04-30T22:53:38.783Z,68.00
2023-04-30T22:56:06.108Z,68.61
2023-04-30T22:58:32.958Z,68.99
2023-04-30T23:01:00.142Z,69.24
2023-04-30T23:03:27.085Z,69.39
2023-04-30T23:05:54.095Z,69.45
2023-04-30T23:08:21.029Z,69.38
2023-04-30T23:10:49.244Z,69.91
2023-04-30T23:13:18.658Z,70.04
2023-04-30T23:15:45.857Z,70.66
2023-04-30T23:18:13.020Z,71.58
2023-04-30T23:20:40.909Z,72.13
2023-04-30T23:23:07.782Z,71.75
2023-04-30T23:25:34.760Z,71.25
2023-04-30T23:28:01.806Z,71.84
2023-04-30T23:30:29.241Z,71.96
2023-04-30T23:32:56.608Z,72.29
2023-04-30T23:35:23.584Z,72.55
2023-04-30T23:37:50.632Z,72.81
2023-04-30T23:40:19.741Z,72.19
2023-04-30T23:42:46.895Z,72.56
2023-04-30T23:45:13.882Z,72.96
2023-04-30T23:47:40.976Z,73.92
2023-04-30T23:50:08.788Z,74.43
2023-04-30T23:52:36.798Z,74.44
2023-04-30T23:55:04.198Z,74.40
2023-04-30T23:57:31.393Z,73.69
2023-04-30T23:59:58.931Z,73.91
